createdAt,value
2023-05-19T00:01:43.766Z,3.33
2023-05-19T00:03:53.880Z,2.90
2023-05-19T00:05:59.516Z,3.80
2023-05-19T00:08:04.104Z,2.83
2023-05-19T00:10:08.778Z,3.03
2023-05-19T00:12:13.954Z,3.10
2023-05-19T00:14:17.780Z,2.97
2023-05-19T00:16:22.173Z,3.50
2023-05-19T00:18:26.546Z,3.50
2023-05-19T00:20:31.553Z,3.40
2023-05-19T00:22:35.264Z,3.20
2023-05-19T00:24:38.631Z,2.90
2023-05-19T00:26:42.145Z,4.87
2023-05-19T00:28:45.493Z,3.10
2023-05-19T00:30:48.868Z,2.67
2023-05-19T00:32:52.589Z,3.00
2023-05-19T00:34:56.180Z,2.80
2023-05-19T00:37:00.946Z,2.50
2023-05-19T00:39:04.570Z,2.30
2023-05-19T00:41:08.601Z,3.00
2023-05-19T00:43:11.951Z,2.60
2023-05-19T00:45:15.351Z,2.73
2023-05-19T00:47:18.875Z,3.20
2023-05-19T00:49:22.236Z,3.17
2023-05-19T00:51:29.569Z,3.17
2023-05-19T00:53:35.706Z,2.70
2023-05-19T00:55:40.544Z,3.20
2023-05-19T00:57:45.296Z,3.87
2023-05-19T00:59:49.615Z,4.47
2023-05-19T01:01:53.956Z,3.77
2023-05-19T01:03:58.919Z,3.30
2023-05-19T01:06:04.921Z,2.87
2023-05-19T01:08:08.439Z,3.20
2023-05-19T01:10:14.646Z,2.77
2023-05-19T01:12:18.351Z,3.00
2023-05-19T01:14:22.188Z,3.23
2023-05-19T01:16:32.048Z,3.30
2023-05-19T01:18:45.593Z,3.90
2023-05-19T01:20:53.201Z,2.40
2023-05-19T01:23:21.482Z,3.13
2023-05-19T01:25:47.115Z,3.00
2023-05-19T01:28:20.728Z,2.63
2023-05-19T01:30:31.268Z,2.67
2023-05-19T01:32:35.859Z,2.60
2023-05-19T01:34:44.546Z,3.10
2023-05-19T01:36:49.914Z,2.43
2023-05-19T01:38:57.112Z,2.60
2023-05-19T01:41:01.566Z,2.67
2023-05-19T01:43:05.807Z,3.77
2023-05-19T01:45:11.313Z,3.20
2023-05-19T01:47:17.066Z,3.30
2023-05-19T01:49:20.699Z,3.10
2023-05-19T01:51:24.191Z,2.37
2023-05-19T01:53:27.729Z,2.60
2023-05-19T01:55:31.327Z,2.83
2023-05-19T01:57:44.184Z,2.73
2023-05-19T01:59:58.904Z,2.60
2023-05-19T02:02:09.377Z,3.37
2023-05-19T02:04:26.182Z,3.00
2023-05-19T02:06:38.009Z,2.97
2023-05-19T02:08:45.281Z,3.20
2023-05-19T02:10:56.277Z,2.70
2023-05-19T02:13:06.211Z,3.10
2023-05-19T02:15:15.331Z,2.77
2023-05-19T02:17:21.267Z,3.63
2023-05-19T02:19:28.429Z,2.87
2023-05-19T02:21:32.707Z,3.00
2023-05-19T02:23:36.074Z,3.47
2023-05-19T02:25:39.521Z,3.20
2023-05-19T02:27:43.199Z,2.67
2023-05-19T02:29:46.588Z,3.23
2023-05-19T02:31:50.040Z,2.87
2023-05-19T02:33:53.399Z,3.27
2023-05-19T02:35:58.377Z,3.20
2023-05-19T02:38:01.862Z,3.50
2023-05-19T02:40:07.105Z,3.70
2023-05-19T02:42:10.810Z,3.17
2023-05-19T02:44:14.256Z,2.90
2023-05-19T02:46:17.704Z,2.67
2023-05-19T02:48:21.146Z,2.90
2023-05-19T02:50:24.512Z,4.00
2023-05-19T02:52:29.262Z,3.00
2023-05-19T02:54:33.441Z,3.70
2023-05-19T02:56:37.164Z,3.60
2023-05-19T02:58:43.027Z,3.70
2023-05-19T03:00:46.389Z,3.40
2023-05-19T03:02:49.960Z,3.30
2023-05-19T03:04:53.612Z,3.30
2023-05-19T03:06:57.348Z,3.10
2023-05-19T03:09:02.084Z,3.47
2023-05-19T03:11:05.564Z,3.77
2023-05-19T03:13:08.937Z,2.83
2023-05-19T03:15:15.010Z,3.93
2023-05-19T03:17:18.707Z,2.83
2023-05-19T03:19:24.550Z,3.20
2023-05-19T03:21:28.174Z,3.33
2023-05-19T03:23:31.625Z,3.40
2023-05-19T03:25:36.380Z,4.67
2023-05-19T03:27:40.015Z,5.57
2023-05-19T03:29:43.411Z,4.43
2023-05-19T03:31:47.097Z,4.90
2023-05-19T03:33:52.557Z,4.00
2023-05-19T03:35:57.618Z,4.57
2023-05-19T03:38:01.496Z,3.90
2023-05-19T03:40:06.045Z,4.00
2023-05-19T03:42:13.801Z,3.60
2023-05-19T03:44:17.233Z,3.50
2023-05-19T03:46:21.477Z,3.70
2023-05-19T03:48:56.176Z,3.63
2023-05-19T03:51:34.994Z,3.03
2023-05-19T03:53:48.631Z,3.10
2023-05-19T03:55:52.150Z,3.30
2023-05-19T03:57:57.125Z,3.50
2023-05-19T04:00:00.529Z,3.57
2023-05-19T04:02:04.094Z,3.10
2023-05-19T04:04:07.569Z,3.37
2023-05-19T04:06:11.184Z,4.10
2023-05-19T04:08:14.513Z,3.47
2023-05-19T04:10:17.913Z,3.60
2023-05-19T04:12:21.299Z,3.57
2023-05-19T04:14:26.066Z,3.33
2023-05-19T04:16:33.264Z,3.00
2023-05-19T04:18:36.843Z,2.70
2023-05-19T04:20:45.820Z,3.33
2023-05-19T04:22:49.313Z,3.60
2023-05-19T04:24:53.033Z,4.90
2023-05-19T04:26:56.771Z,3.90
2023-05-19T04:29:00.490Z,4.53
2023-05-19T04:31:10.563Z,4.27
2023-05-19T04:33:14.070Z,3.30
2023-05-19T04:35:19.447Z,3.33
2023-05-19T04:37:24.162Z,3.63
2023-05-19T04:39:27.638Z,3.40
2023-05-19T04:41:31.539Z,3.80
2023-05-19T04:43:35.218Z,3.70
2023-05-19T04:45:42.390Z,3.90
2023-05-19T04:47:49.108Z,3.30
2023-05-19T04:49:55.643Z,4.00
2023-05-19T04:51:59.302Z,4.23
2023-05-19T04:54:06.279Z,4.83
2023-05-19T04:56:13.727Z,4.60
2023-05-19T04:58:18.414Z,4.83
2023-05-19T05:00:22.797Z,4.40
2023-05-19T05:02:32.086Z,3.60
2023-05-19T05:04:40.501Z,3.80
2023-05-19T05:06:47.796Z,4.00
2023-05-19T05:08:52.310Z,3.20
2023-05-19T05:10:56.454Z,4.40
2023-05-19T05:13:01.153Z,3.10
2023-05-19T05:15:06.902Z,3.40
2023-05-19T05:17:12.760Z,3.50
2023-05-19T05:19:18.844Z,3.90
2023-05-19T05:21:24.283Z,2.90
2023-05-19T05:23:28.349Z,2.90
2023-05-19T05:25:33.983Z,2.90
2023-05-19T05:27:37.899Z,2.67
2023-05-19T05:29:43.422Z,3.30
2023-05-19T05:31:46.892Z,2.60
2023-05-19T05:33:50.376Z,2.50
2023-05-19T05:35:57.330Z,2.90
2023-05-19T05:38:03.433Z,2.23
2023-05-19T05:40:08.422Z,2.20
2023-05-19T05:42:12.605Z,2.60
2023-05-19T05:44:17.174Z,2.63
2023-05-19T05:46:21.794Z,2.70
2023-05-19T05:48:25.796Z,4.27
2023-05-19T05:50:29.973Z,2.83
2023-05-19T05:52:34.128Z,3.43
2023-05-19T05:54:40.040Z,3.00
2023-05-19T05:56:44.930Z,2.37
2023-05-19T05:58:49.493Z,3.00
2023-05-19T06:00:55.232Z,6.27
2023-05-19T06:02:59.172Z,2.80
2023-05-19T06:05:03.678Z,2.93
2023-05-19T06:07:10.089Z,2.93
2023-05-19T06:09:15.124Z,1.90
2023-05-19T06:11:21.899Z,2.07
2023-05-19T06:13:26.087Z,2.07
2023-05-19T06:15:29.644Z,1.77
2023-05-19T06:17:37.943Z,3.20
2023-05-19T06:19:41.345Z,3.13
2023-05-19T06:21:44.751Z,2.43
2023-05-19T06:23:48.577Z,2.30
2023-05-19T06:25:52.047Z,2.90
2023-05-19T06:27:57.251Z,2.40
2023-05-19T06:30:00.877Z,2.63
2023-05-19T06:32:08.995Z,2.47
2023-05-19T06:34:14.901Z,2.17
2023-05-19T06:36:18.712Z,4.70
2023-05-19T06:38:25.377Z,3.60
2023-05-19T06:40:31.198Z,3.90
2023-05-19T06:42:35.058Z,4.03
2023-05-19T06:44:54.198Z,2.77
2023-05-19T06:46:57.706Z,2.23
2023-05-19T06:49:01.446Z,2.00
2023-05-19T06:51:10.144Z,2.60
2023-05-19T06:53:15.405Z,2.10
2023-05-19T06:55:19.860Z,2.30
2023-05-19T06:57:25.752Z,2.90
2023-05-19T06:59:29.652Z,5.30
2023-05-19T07:01:34.530Z,7.07
2023-05-19T07:03:38.751Z,6.57
2023-05-19T07:05:42.641Z,5.03
2023-05-19T07:07:47.050Z,2.83
2023-05-19T07:09:54.770Z,2.13
2023-05-19T07:11:58.373Z,2.07
2023-05-19T07:14:01.900Z,1.83
2023-05-19T07:16:08.230Z,1.80
2023-05-19T07:18:13.133Z,2.50
2023-05-19T07:20:16.967Z,2.50
2023-05-19T07:22:21.008Z,1.80
2023-05-19T07:24:24.976Z,2.20
2023-05-19T07:26:28.447Z,1.73
2023-05-19T07:28:31.851Z,2.30
2023-05-19T07:30:35.370Z,2.43
2023-05-19T07:32:39.035Z,1.40
2023-05-19T07:34:43.780Z,2.03
2023-05-19T07:36:47.338Z,2.70
2023-05-19T07:38:51.152Z,1.43
2023-05-19T07:40:54.490Z,2.70
2023-05-19T07:42:57.852Z,3.80
2023-05-19T07:45:03.126Z,4.80
2023-05-19T07:47:07.064Z,3.63
2023-05-19T07:49:10.448Z,1.93
2023-05-19T07:51:16.153Z,2.40
2023-05-19T07:53:19.829Z,1.90
2023-05-19T07:55:23.739Z,1.90
2023-05-19T07:57:27.341Z,2.07
2023-05-19T07:59:30.745Z,1.97
2023-05-19T08:01:34.167Z,1.50
2023-05-19T08:03:37.964Z,1.57
2023-05-19T08:05:41.457Z,1.63
2023-05-19T08:07:46.161Z,1.50
2023-05-19T08:09:49.628Z,2.27
2023-05-19T08:11:52.941Z,1.97
2023-05-19T08:13:56.365Z,1.60
2023-05-19T08:16:00.714Z,2.20
2023-05-19T08:18:05.280Z,1.67
2023-05-19T08:20:10.246Z,1.77
2023-05-19T08:22:13.679Z,1.77
2023-05-19T08:24:18.415Z,1.90
2023-05-19T08:26:22.817Z,1.97
2023-05-19T08:28:26.503Z,1.67
2023-05-19T08:30:30.140Z,2.20
2023-05-19T08:32:33.570Z,1.90
2023-05-19T08:34:37.156Z,2.57
2023-05-19T08:36:40.831Z,2.40
2023-05-19T08:38:44.244Z,2.40
2023-05-19T08:40:49.203Z,2.43
2023-05-19T08:42:52.568Z,1.87
2023-05-19T08:44:55.998Z,2.20
2023-05-19T08:47:03.784Z,2.20
2023-05-19T08:49:13.111Z,1.60
2023-05-19T08:51:24.694Z,1.80
2023-05-19T08:53:34.651Z,2.17
2023-05-19T08:55:44.936Z,2.10
2023-05-19T08:57:50.823Z,2.00
2023-05-19T08:59:55.843Z,2.50
2023-05-19T09:01:59.907Z,1.63
2023-05-19T09:04:04.447Z,1.60
2023-05-19T09:06:08.960Z,2.00
2023-05-19T09:08:12.512Z,1.80
2023-05-19T09:10:16.389Z,2.00
2023-05-19T09:12:19.864Z,1.70
2023-05-19T09:14:24.662Z,5.80
2023-05-19T09:16:30.232Z,2.37
2023-05-19T09:18:33.962Z,1.93
2023-05-19T09:20:41.702Z,1.50
2023-05-19T09:22:47.334Z,1.77
2023-05-19T09:24:51.007Z,2.47
2023-05-19T09:26:57.931Z,2.23
2023-05-19T09:29:03.569Z,1.47
2023-05-19T09:31:09.572Z,1.30
2023-05-19T09:33:18.388Z,1.50
2023-05-19T09:35:21.855Z,1.50
2023-05-19T09:37:25.816Z,1.97
2023-05-19T09:39:29.699Z,1.90
2023-05-19T09:41:34.340Z,1.90
2023-05-19T09:43:37.751Z,2.13
2023-05-19T09:45:41.113Z,1.50
2023-05-19T09:47:46.059Z,2.53
2023-05-19T09:49:50.251Z,1.83
2023-05-19T09:51:55.665Z,1.53
2023-05-19T09:53:59.665Z,1.87
2023-05-19T09:56:04.395Z,1.70
2023-05-19T09:58:08.069Z,1.87
2023-05-19T10:00:15.680Z,1.70
2023-05-19T10:02:22.024Z,1.60
2023-05-19T10:04:29.526Z,1.80
2023-05-19T10:06:33.181Z,2.17
2023-05-19T10:08:38.685Z,1.83
2023-05-19T10:10:42.763Z,1.97
2023-05-19T10:12:47.005Z,1.53
2023-05-19T10:14:52.988Z,2.00
2023-05-19T10:16:57.875Z,1.70
2023-05-19T10:19:02.556Z,1.93
2023-05-19T10:21:09.149Z,1.83
2023-05-19T10:23:12.617Z,1.40
2023-05-19T10:25:18.616Z,1.50
2023-05-19T10:27:23.187Z,1.50
2023-05-19T10:29:32.869Z,1.40
2023-05-19T10:31:37.406Z,1.73
2023-05-19T10:34:15.982Z,1.90
2023-05-19T10:36:38.272Z,1.57
2023-05-19T10:38:49.027Z,1.87
2023-05-19T10:41:01.635Z,1.60
2023-05-19T10:43:20.790Z,2.07
2023-05-19T10:45:28.126Z,1.60
2023-05-19T10:47:32.437Z,2.00
2023-05-19T10:49:36.449Z,1.90
2023-05-19T10:51:41.100Z,1.57
2023-05-19T10:53:49.951Z,2.60
2023-05-19T10:55:55.952Z,2.73
2023-05-19T10:58:00.411Z,1.73
2023-05-19T11:00:11.673Z,1.77
2023-05-19T11:02:40.991Z,1.83
2023-05-19T11:04:51.268Z,2.00
2023-05-19T11:06:57.789Z,1.63
2023-05-19T11:09:05.383Z,1.53
2023-05-19T11:11:16.209Z,1.77
2023-05-19T11:13:23.059Z,3.37
2023-05-19T11:15:28.176Z,2.03
2023-05-19T11:17:33.092Z,1.73
2023-05-19T11:19:36.928Z,1.80
2023-05-19T11:21:49.076Z,2.00
2023-05-19T11:23:54.008Z,2.60
2023-05-19T11:25:57.875Z,1.70
2023-05-19T11:28:01.361Z,1.47
2023-05-19T11:30:14.349Z,1.83
2023-05-19T11:32:18.195Z,1.93
2023-05-19T11:34:21.802Z,1.70
2023-05-19T11:36:25.842Z,3.03
2023-05-19T11:38:30.248Z,2.57
2023-05-19T11:40:35.172Z,1.50
2023-05-19T11:42:38.521Z,1.80
2023-05-19T11:44:42.766Z,2.10
2023-05-19T11:46:46.468Z,1.90
2023-05-19T11:48:50.494Z,1.70
2023-05-19T11:50:54.419Z,1.63
2023-05-19T11:52:57.974Z,1.90
2023-05-19T11:55:01.741Z,1.63
2023-05-19T11:57:09.148Z,2.40
2023-05-19T11:59:12.781Z,2.80
2023-05-19T12:01:34.973Z,2.03
2023-05-19T12:03:38.680Z,2.40
2023-05-19T12:05:46.059Z,1.97
2023-05-19T12:07:51.476Z,2.30
2023-05-19T12:09:56.492Z,1.63
2023-05-19T12:11:59.947Z,2.23
2023-05-19T12:14:04.777Z,1.87
2023-05-19T12:16:09.730Z,2.27
2023-05-19T12:18:13.130Z,2.03
2023-05-19T12:20:16.920Z,2.20
2023-05-19T12:22:20.982Z,1.93
2023-05-19T12:24:24.449Z,2.17
2023-05-19T12:26:28.279Z,1.97
2023-05-19T12:28:32.091Z,2.03
2023-05-19T12:30:37.086Z,2.27
2023-05-19T12:32:40.969Z,2.60
2023-05-19T12:34:44.402Z,1.70
2023-05-19T12:36:47.791Z,1.90
2023-05-19T12:38:54.964Z,2.20
2023-05-19T12:40:59.701Z,3.23
2023-05-19T12:43:03.025Z,2.57
2023-05-19T12:45:07.331Z,1.87
2023-05-19T12:47:13.051Z,1.97
2023-05-19T12:49:17.051Z,2.50
2023-05-19T12:51:20.934Z,2.80
2023-05-19T12:53:28.244Z,2.10
2023-05-19T12:55:31.684Z,2.20
2023-05-19T12:57:36.159Z,2.20
2023-05-19T12:59:39.587Z,2.20
2023-05-19T13:01:42.937Z,1.40
2023-05-19T13:03:49.262Z,2.50
2023-05-19T13:05:53.447Z,2.20
2023-05-19T13:07:58.382Z,2.70
2023-05-19T13:10:01.721Z,1.93
2023-05-19T13:12:05.617Z,2.00
2023-05-19T13:14:09.010Z,2.20
2023-05-19T13:16:13.475Z,2.00
2023-05-19T13:18:17.189Z,2.03
2023-05-19T13:20:22.137Z,2.13
2023-05-19T13:22:25.522Z,2.23
2023-05-19T13:24:28.947Z,1.87
2023-05-19T13:26:32.357Z,2.07
2023-05-19T13:28:35.946Z,2.00
2023-05-19T13:30:41.443Z,2.13
2023-05-19T13:32:45.329Z,4.27
2023-05-19T13:34:48.969Z,3.27
2023-05-19T13:36:53.731Z,2.83
2023-05-19T13:38:57.169Z,2.40
2023-05-19T13:41:01.686Z,2.30
2023-05-19T13:43:05.940Z,2.40
2023-05-19T13:45:10.640Z,1.67
2023-05-19T13:47:15.107Z,2.20
2023-05-19T13:49:18.677Z,1.90
2023-05-19T13:51:22.132Z,2.00
2023-05-19T13:53:27.338Z,1.87
2023-05-19T13:55:30.895Z,2.10
2023-05-19T13:57:34.288Z,2.20
2023-05-19T13:59:45.844Z,2.30
2023-05-19T14:01:56.879Z,2.20
2023-05-19T14:04:01.207Z,1.83
2023-05-19T14:06:04.968Z,2.40
2023-05-19T14:08:08.375Z,1.90
2023-05-19T14:10:13.289Z,1.90
2023-05-19T14:12:16.712Z,1.67
2023-05-19T14:14:20.413Z,1.90
2023-05-19T14:16:26.139Z,2.70
2023-05-19T14:18:29.474Z,2.13
2023-05-19T14:20:33.358Z,2.03
2023-05-19T14:22:36.917Z,2.33
2023-05-19T14:24:41.484Z,1.80
2023-05-19T14:26:46.532Z,1.90
2023-05-19T14:28:51.320Z,1.80
2023-05-19T14:30:54.608Z,2.27
2023-05-19T14:32:58.071Z,1.90
2023-05-19T14:35:01.973Z,1.73
2023-05-19T14:37:05.651Z,1.70
2023-05-19T14:39:09.019Z,2.00
2023-05-19T14:41:12.432Z,1.60
2023-05-19T14:43:17.282Z,1.80
2023-05-19T14:45:20.619Z,1.87
2023-05-19T14:47:25.693Z,1.93
2023-05-19T14:49:29.820Z,1.70
2023-05-19T14:51:33.394Z,2.00
2023-05-19T14:53:36.782Z,2.10
2023-05-19T14:55:40.128Z,1.50
2023-05-19T14:57:43.592Z,2.00
2023-05-19T14:59:48.453Z,2.20
2023-05-19T15:01:51.814Z,1.90
2023-05-19T15:03:55.266Z,1.80
2023-05-19T15:05:58.619Z,2.27
2023-05-19T15:08:02.284Z,1.77
2023-05-19T15:10:10.678Z,2.03
2023-05-19T15:12:14.156Z,2.57
2023-05-19T15:14:17.644Z,1.60
2023-05-19T15:16:22.352Z,1.93
2023-05-19T15:18:26.046Z,2.00
2023-05-19T15:20:29.680Z,1.73
2023-05-19T15:22:33.257Z,1.90
2023-05-19T15:24:36.782Z,2.10
2023-05-19T15:26:40.231Z,2.23
2023-05-19T15:28:43.555Z,1.70
2023-05-19T15:30:47.101Z,1.67
2023-05-19T15:32:51.938Z,1.97
2023-05-19T15:34:55.693Z,1.50
2023-05-19T15:36:59.029Z,1.80
2023-05-19T15:39:03.633Z,2.00
2023-05-19T15:41:08.634Z,2.03
2023-05-19T15:43:12.019Z,1.90
2023-05-19T15:45:15.344Z,1.77
2023-05-19T15:47:18.917Z,1.70
2023-05-19T15:49:25.054Z,1.53
2023-05-19T15:51:29.251Z,1.47
2023-05-19T15:53:32.697Z,1.90
2023-05-19T15:55:36.100Z,1.83
2023-05-19T15:57:39.491Z,1.63
2023-05-19T15:59:42.878Z,1.77
2023-05-19T16:01:47.757Z,1.63
2023-05-19T16:03:51.272Z,1.40
2023-05-19T16:05:56.463Z,1.77
2023-05-19T16:07:59.954Z,1.67
2023-05-19T16:10:03.331Z,1.60
2023-05-19T16:12:07.582Z,1.70
2023-05-19T16:14:10.983Z,1.80
2023-05-19T16:16:14.363Z,1.60
2023-05-19T16:18:17.752Z,1.63
2023-05-19T16:20:26.596Z,1.90
2023-05-19T16:22:31.242Z,1.37
2023-05-19T16:24:34.567Z,1.50
2023-05-19T16:26:37.944Z,1.60
2023-05-19T16:28:41.292Z,1.93
2023-05-19T16:30:44.642Z,1.63
2023-05-19T16:32:48.048Z,1.90
2023-05-19T16:34:51.542Z,1.77
2023-05-19T16:36:54.866Z,2.80
2023-05-19T16:39:02.776Z,1.70
2023-05-19T16:41:07.622Z,1.80
2023-05-19T16:43:10.980Z,1.87
2023-05-19T16:45:17.343Z,2.33
2023-05-19T16:47:20.876Z,1.73
2023-05-19T16:49:24.268Z,1.83
2023-05-19T16:51:27.742Z,1.93
2023-05-19T16:53:31.969Z,1.77
2023-05-19T16:55:36.611Z,1.57
2023-05-19T16:57:39.956Z,1.67
2023-05-19T16:59:43.671Z,1.70
2023-05-19T17:01:47.189Z,1.80
2023-05-19T17:03:50.732Z,1.97
2023-05-19T17:05:54.225Z,1.70
2023-05-19T17:07:57.595Z,1.60
2023-05-19T17:10:00.986Z,2.07
2023-05-19T17:12:06.471Z,2.80
2023-05-19T17:14:10.040Z,2.10
2023-05-19T17:16:13.506Z,2.40
2023-05-19T17:18:16.968Z,2.00
2023-05-19T17:20:20.344Z,2.13
2023-05-19T17:22:23.720Z,2.03
2023-05-19T17:24:28.820Z,2.00
2023-05-19T17:26:32.198Z,1.90
2023-05-19T17:28:36.852Z,1.63
2023-05-19T17:30:40.782Z,1.83
2023-05-19T17:32:44.269Z,1.80
2023-05-19T17:34:47.771Z,2.27
2023-05-19T17:36:51.234Z,1.80
2023-05-19T17:38:54.599Z,2.00
2023-05-19T17:40:58.788Z,1.73
2023-05-19T17:43:02.180Z,2.37
2023-05-19T17:45:08.341Z,1.70
2023-05-19T17:47:13.008Z,1.70
2023-05-19T17:49:16.469Z,2.17
2023-05-19T17:51:21.110Z,2.30
2023-05-19T17:53:24.998Z,1.90
2023-05-19T17:55:30.948Z,1.63
2023-05-19T17:57:36.143Z,1.83
2023-05-19T17:59:40.172Z,1.70
2023-05-19T18:01:45.453Z,1.60
2023-05-19T18:03:50.081Z,2.10
2023-05-19T18:05:54.029Z,1.40
2023-05-19T18:07:58.349Z,1.77
2023-05-19T18:10:02.349Z,1.60
2023-05-19T18:12:06.726Z,2.00
2023-05-19T18:14:10.035Z,1.67
2023-05-19T18:16:13.869Z,2.20
2023-05-19T18:18:18.584Z,1.90
2023-05-19T18:20:21.986Z,1.60
2023-05-19T18:22:25.412Z,1.63
2023-05-19T18:24:28.867Z,2.17
2023-05-19T18:26:33.013Z,2.13
2023-05-19T18:28:38.218Z,1.83
2023-05-19T18:30:41.935Z,1.60
2023-05-19T18:32:45.564Z,3.60
2023-05-19T18:34:50.307Z,8.97
2023-05-19T18:36:53.684Z,3.30
2023-05-19T18:38:58.186Z,1.97
2023-05-19T18:41:01.722Z,2.50
2023-05-19T18:43:05.051Z,2.40
2023-05-19T18:45:09.264Z,1.53
2023-05-19T18:47:12.578Z,1.63
2023-05-19T18:49:16.365Z,2.20
2023-05-19T18:51:21.767Z,1.30
2023-05-19T18:53:25.379Z,2.10
2023-05-19T18:55:28.745Z,2.20
2023-05-19T18:57:32.245Z,1.80
2023-05-19T18:59:35.784Z,2.00
2023-05-19T19:01:39.300Z,1.80
2023-05-19T19:03:43.679Z,1.63
2023-05-19T19:05:47.771Z,1.40
2023-05-19T19:07:53.295Z,2.37
2023-05-19T19:09:56.743Z,1.50
2023-05-19T19:12:00.082Z,1.40
2023-05-19T19:14:03.430Z,1.63
2023-05-19T19:16:07.728Z,1.77
2023-05-19T19:18:11.311Z,1.83
2023-05-19T19:20:15.127Z,1.90
2023-05-19T19:22:18.605Z,2.17
2023-05-19T19:24:23.308Z,1.80
2023-05-19T19:26:28.847Z,1.87
2023-05-19T19:28:32.263Z,1.57
2023-05-19T19:30:35.905Z,1.67
2023-05-19T19:32:39.504Z,1.47
2023-05-19T19:34:42.927Z,1.97
2023-05-19T19:36:47.744Z,1.80
2023-05-19T19:38:51.112Z,1.60
2023-05-19T19:40:55.872Z,1.77
2023-05-19T19:42:59.374Z,2.17
2023-05-19T19:45:02.915Z,1.87
2023-05-19T19:47:06.834Z,1.60
2023-05-19T19:49:10.484Z,1.77
2023-05-19T19:51:14.025Z,4.20
2023-05-19T19:53:17.661Z,4.13
2023-05-19T19:55:21.076Z,4.30
2023-05-19T19:57:26.882Z,3.17
2023-05-19T19:59:30.611Z,2.57
2023-05-19T20:01:34.086Z,1.90
2023-05-19T20:03:38.169Z,1.53
2023-05-19T20:05:41.813Z,1.80
2023-05-19T20:07:45.404Z,1.53
2023-05-19T20:09:50.784Z,1.90
2023-05-19T20:11:54.594Z,1.87
2023-05-19T20:13:59.401Z,2.00
2023-05-19T20:16:03.017Z,1.60
2023-05-19T20:18:06.623Z,1.73
2023-05-19T20:20:12.160Z,1.60
2023-05-19T20:22:16.094Z,2.03
2023-05-19T20:24:19.524Z,1.87
2023-05-19T20:26:23.590Z,1.77
2023-05-19T20:28:27.441Z,1.90
2023-05-19T20:30:32.381Z,1.60
2023-05-19T20:32:36.001Z,1.60
2023-05-19T20:34:39.562Z,1.70
2023-05-19T20:36:42.878Z,1.20
2023-05-19T20:38:47.881Z,1.70
2023-05-19T20:40:51.267Z,1.83
2023-05-19T20:42:54.623Z,1.80
2023-05-19T20:44:58.389Z,1.83
2023-05-19T20:47:04.195Z,1.47
2023-05-19T20:49:07.647Z,1.63
2023-05-19T20:51:11.018Z,1.60
2023-05-19T20:53:14.354Z,1.90
2023-05-19T20:55:17.921Z,1.73
2023-05-19T20:57:21.396Z,1.60
2023-05-19T20:59:24.836Z,1.40
2023-05-19T21:01:29.794Z,1.80
2023-05-19T21:03:34.851Z,1.80
2023-05-19T21:05:38.311Z,2.00
2023-05-19T21:07:41.697Z,1.70
2023-05-19T21:09:46.545Z,1.60
2023-05-19T21:11:53.081Z,1.67
2023-05-19T21:13:56.612Z,1.63
2023-05-19T21:15:59.978Z,1.50
2023-05-19T21:18:03.673Z,1.93
2023-05-19T21:20:10.440Z,1.50
2023-05-19T21:22:13.907Z,1.70
2023-05-19T21:24:17.895Z,1.73
2023-05-19T21:26:21.662Z,1.40
2023-05-19T21:28:25.253Z,1.53
2023-05-19T21:30:28.791Z,1.50
2023-05-19T21:32:32.294Z,1.67
2023-05-19T21:34:36.019Z,1.60
2023-05-19T21:36:40.814Z,4.47
2023-05-19T21:38:44.196Z,3.83
2023-05-19T21:40:48.158Z,2.60
2023-05-19T21:42:51.636Z,2.63
2023-05-19T21:44:55.196Z,2.20
2023-05-19T21:46:58.755Z,1.73
2023-05-19T21:49:02.418Z,2.40
2023-05-19T21:51:06.270Z,3.13
2023-05-19T21:53:11.045Z,2.57
2023-05-19T21:55:14.424Z,2.33
2023-05-19T21:57:17.762Z,1.73
2023-05-19T21:59:23.152Z,2.23
2023-05-19T22:01:26.599Z,2.23
2023-05-19T22:03:30.094Z,1.97
2023-05-19T22:05:35.127Z,1.40
2023-05-19T22:07:39.008Z,1.40
2023-05-19T22:09:43.816Z,1.70
2023-05-19T22:11:47.202Z,1.90
2023-05-19T22:13:50.615Z,2.20
2023-05-19T22:15:53.967Z,1.67
2023-05-19T22:17:57.521Z,1.67
2023-05-19T22:20:01.093Z,1.47
2023-05-19T22:22:13.097Z,1.60
2023-05-19T22:24:18.522Z,1.20
2023-05-19T22:26:23.269Z,1.90
2023-05-19T22:28:27.133Z,1.77
2023-05-19T22:30:30.718Z,1.30
2023-05-19T22:32:35.146Z,1.97
2023-05-19T22:34:39.221Z,1.40
2023-05-19T22:36:44.217Z,1.87
2023-05-19T22:38:47.706Z,2.30
2023-05-19T22:40:51.234Z,1.73
2023-05-19T22:42:55.911Z,1.70
2023-05-19T22:44:59.282Z,1.70
2023-05-19T22:47:02.802Z,1.40
2023-05-19T22:49:06.298Z,1.83
2023-05-19T22:51:09.716Z,1.70
2023-05-19T22:53:13.039Z,1.87
2023-05-19T22:55:16.517Z,2.07
2023-05-19T22:57:20.125Z,4.80
2023-05-19T22:59:24.922Z,4.77
2023-05-19T23:01:28.654Z,3.20
2023-05-19T23:03:32.256Z,2.80
2023-05-19T23:05:36.021Z,2.30
2023-05-19T23:07:39.508Z,2.43
2023-05-19T23:09:42.826Z,1.97
2023-05-19T23:11:46.240Z,1.93
2023-05-19T23:13:49.618Z,1.73
2023-05-19T23:15:54.360Z,1.50
2023-05-19T23:17:57.788Z,1.60
2023-05-19T23:20:01.215Z,1.30
2023-05-19T23:22:04.706Z,1.80
2023-05-19T23:24:08.161Z,1.50
2023-05-19T23:26:13.285Z,1.40
2023-05-19T23:28:16.947Z,1.90
2023-05-19T23:30:20.604Z,1.40
2023-05-19T23:32:25.339Z,1.40
2023-05-19T23:34:28.716Z,1.40
2023-05-19T23:36:32.324Z,1.70
2023-05-19T23:38:35.758Z,1.90
2023-05-19T23:40:39.099Z,1.70
2023-05-19T23:42:44.454Z,1.60
2023-05-19T23:44:47.834Z,1.37
2023-05-19T23:46:51.429Z,1.60
2023-05-19T23:48:56.260Z,1.40
2023-05-19T23:50:59.714Z,1.10
2023-05-19T23:53:03.217Z,1.23
2023-05-19T23:55:07.701Z,1.30
2023-05-19T23:57:11.096Z,1.10
2023-05-19T23:59:14.550Z,1.60
